createdAt,value
2023-04-11T00:01:15.660Z,100414.54
2023-04-11T00:11:03.183Z,100405.66
2023-04-11T00:13:31.542Z,100401.37
2023-04-11T00:16:08.981Z,100401.23
2023-04-11T00:18:39.520Z,100398.16
2023-04-11T00:21:08.269Z,100399.33
2023-04-11T00:23:37.973Z,100397.65
2023-04-11T00:26:06.458Z,100392.17
2023-04-11T00:28:42.684Z,100395.34
2023-04-11T00:31:12.561Z,100396.14
2023-04-11T00:33:41.295Z,100396.73
2023-04-11T00:36:10.728Z,100391.83
2023-04-11T00:38:40.346Z,100392.27
2023-04-11T00:41:11.083Z,100388.28
2023-04-11T00:43:49.906Z,100386.83
2023-04-11T00:46:18.796Z,100389.23
2023-04-11T00:48:47.974Z,100389.19
2023-04-11T00:51:26.097Z,100384.39
2023-04-11T00:53:54.813Z,100383.02
2023-04-11T00:56:23.513Z,100383.44
2023-04-11T00:58:53.839Z,100378.41
2023-04-11T01:01:25.284Z,100375.92
2023-04-11T01:03:54.238Z,100371.56
2023-04-11T01:06:23.507Z,100369.03
2023-04-11T01:08:56.199Z,100368.72
2023-04-11T01:11:24.757Z,100368.84
2023-04-11T01:13:52.921Z,100367.80
2023-04-11T01:16:21.887Z,100367.46
2023-04-11T01:18:50.947Z,100363.94
2023-04-11T01:21:20.227Z,100359.02
2023-04-11T01:23:49.098Z,100353.83
2023-04-11T01:26:17.470Z,100353.84
2023-04-11T01:28:46.281Z,100346.07
2023-04-11T01:31:15.264Z,100341.61
2023-04-11T01:33:45.678Z,100335.20
2023-04-11T01:36:14.272Z,100330.79
2023-04-11T01:38:46.835Z,100331.29
2023-04-11T01:41:16.111Z,100328.95
2023-04-11T01:43:47.761Z,100324.80
2023-04-11T01:46:16.585Z,100321.90
2023-04-11T01:48:46.119Z,100323.80
2023-04-11T01:51:16.041Z,100325.11
2023-04-11T01:53:47.538Z,100323.02
2023-04-11T01:56:16.849Z,100323.41
2023-04-11T01:58:47.834Z,100323.98
2023-04-11T02:01:19.286Z,100321.08
2023-04-11T02:03:48.212Z,100323.52
2023-04-11T02:06:17.087Z,100324.98
2023-04-11T02:08:54.124Z,100328.13
2023-04-11T02:11:23.508Z,100327.88
2023-04-11T02:13:53.357Z,100328.02
2023-04-11T02:16:26.097Z,100329.05
2023-04-11T02:18:55.138Z,100328.19
2023-04-11T02:21:23.681Z,100328.27
2023-04-11T02:23:55.002Z,100333.00
2023-04-11T02:26:23.232Z,100327.06
2023-04-11T02:28:51.525Z,100324.73
2023-04-11T02:31:20.175Z,100322.86
2023-04-11T02:33:48.650Z,100328.34
2023-04-11T02:36:18.868Z,100331.62
2023-04-11T02:38:48.682Z,100331.73
2023-04-11T02:41:16.765Z,100329.57
2023-04-11T02:43:52.197Z,100330.15
2023-04-11T02:46:22.632Z,100330.39
2023-04-11T02:48:51.056Z,100325.94
2023-04-11T02:51:20.819Z,100326.10
2023-04-11T02:53:48.906Z,100327.48
2023-04-11T02:56:21.586Z,100324.19
2023-04-11T02:58:55.755Z,100328.27
2023-04-11T03:01:25.536Z,100334.38
2023-04-11T03:04:00.446Z,100332.08
2023-04-11T03:06:39.410Z,100327.20
2023-04-11T03:09:07.707Z,100322.21
2023-04-11T03:11:41.708Z,100319.38
2023-04-11T03:14:10.542Z,100318.09
2023-04-11T03:16:39.423Z,100316.77
2023-04-11T03:19:08.950Z,100308.01
2023-04-11T03:21:37.094Z,100304.23
2023-04-11T03:24:06.493Z,100302.28
2023-04-11T03:26:35.653Z,100298.71
2023-04-11T03:29:09.069Z,100302.94
2023-04-11T03:31:46.700Z,100304.17
2023-04-11T03:34:16.209Z,100298.84
2023-04-11T03:36:44.384Z,100294.61
2023-04-11T03:39:13.792Z,100297.48
2023-04-11T03:41:42.031Z,100296.77
2023-04-11T03:44:11.311Z,100299.94
2023-04-11T03:46:39.544Z,100294.95
2023-04-11T03:49:08.084Z,100294.20
2023-04-11T03:51:36.440Z,100293.64
2023-04-11T03:54:07.363Z,100292.80
2023-04-11T03:56:39.395Z,100290.86
2023-04-11T03:59:08.581Z,100286.71
2023-04-11T04:01:47.912Z,100278.54
2023-04-11T04:04:16.304Z,100275.32
2023-04-11T04:06:56.732Z,100274.58
2023-04-11T04:09:29.571Z,100277.54
2023-04-11T04:11:57.835Z,100282.91
2023-04-11T04:14:33.731Z,100283.76
2023-04-11T04:17:02.674Z,100285.16
2023-04-11T04:19:31.281Z,100283.90
2023-04-11T04:21:59.838Z,100283.80
2023-04-11T04:24:32.026Z,100281.58
2023-04-11T04:27:13.916Z,100282.80
2023-04-11T04:29:47.894Z,100280.67
2023-04-11T04:32:25.073Z,100279.79
2023-04-11T04:35:02.299Z,100279.68
2023-04-11T04:37:39.610Z,100279.95
2023-04-11T04:40:40.289Z,100282.38
2023-04-11T04:43:18.481Z,100280.34
2023-04-11T04:46:12.055Z,100279.46
2023-04-11T04:48:45.053Z,100279.73
2023-04-11T04:51:13.562Z,100280.36
2023-04-11T04:53:48.700Z,100283.20
2023-04-11T04:56:17.893Z,100284.94
2023-04-11T04:58:47.430Z,100281.38
2023-04-11T05:01:27.403Z,100275.45
2023-04-11T05:03:59.830Z,100276.65
2023-04-11T05:06:40.600Z,100277.42
2023-04-11T05:09:14.811Z,100278.30
2023-04-11T05:11:43.572Z,100279.83
2023-04-11T05:14:11.771Z,100277.40
2023-04-11T05:16:45.124Z,100269.67
2023-04-11T05:19:14.583Z,100269.75
2023-04-11T05:21:46.451Z,100266.91
2023-04-11T05:24:17.602Z,100266.02
2023-04-11T05:26:47.094Z,100264.30
2023-04-11T05:29:20.948Z,100261.91
2023-04-11T05:31:52.112Z,100258.31
2023-04-11T05:34:21.149Z,100252.34
2023-04-11T05:36:50.169Z,100251.51
2023-04-11T05:39:19.158Z,100248.25
2023-04-11T05:41:47.422Z,100245.31
2023-04-11T05:44:19.954Z,100243.31
2023-04-11T05:46:48.659Z,100241.75
2023-04-11T05:49:17.145Z,100246.19
2023-04-11T05:51:45.358Z,100241.95
2023-04-11T05:54:30.679Z,100234.92
2023-04-11T05:56:59.297Z,100234.50
2023-04-11T05:59:28.954Z,100236.50
2023-04-11T06:01:58.734Z,100234.99
2023-04-11T06:04:27.016Z,100235.14
2023-04-11T06:06:55.717Z,100233.29
2023-04-11T06:09:24.382Z,100229.69
2023-04-11T06:11:52.479Z,100233.48
2023-04-11T06:14:20.860Z,100237.94
2023-04-11T06:16:48.925Z,100236.69
2023-04-11T06:19:16.905Z,100235.05
2023-04-11T06:21:49.374Z,100234.55
2023-04-11T06:24:19.959Z,100238.59
2023-04-11T06:26:49.437Z,100239.48
2023-04-11T06:29:18.088Z,100239.67
2023-04-11T06:31:46.623Z,100239.86
2023-04-11T06:34:14.773Z,100240.70
2023-04-11T06:36:43.961Z,100234.86
2023-04-11T06:39:13.189Z,100233.73
2023-04-11T06:41:41.976Z,100232.11
2023-04-11T06:44:10.053Z,100233.27
2023-04-11T06:46:42.711Z,100229.64
2023-04-11T06:49:12.046Z,100226.37
2023-04-11T06:51:40.145Z,100222.21
2023-04-11T06:54:08.317Z,100221.11
2023-04-11T06:56:37.265Z,100219.00
2023-04-11T06:59:17.010Z,100215.42
2023-04-11T07:01:45.716Z,100211.97
2023-04-11T07:04:13.904Z,100211.45
2023-04-11T07:06:50.162Z,100212.63
2023-04-11T07:09:20.083Z,100214.58
2023-04-11T07:11:48.290Z,100216.14
2023-04-11T07:14:17.403Z,100216.46
2023-04-11T07:16:47.409Z,100210.07
2023-04-11T07:19:16.133Z,100199.50
2023-04-11T07:21:44.300Z,100195.96
2023-04-11T07:24:38.830Z,100190.70
2023-04-11T07:27:07.068Z,100190.30
2023-04-11T07:29:36.477Z,100190.09
2023-04-11T07:32:05.872Z,100191.09
2023-04-11T07:34:33.903Z,100189.92
2023-04-11T07:37:02.536Z,100189.88
2023-04-11T07:39:31.354Z,100185.88
2023-04-11T07:41:59.430Z,100181.64
2023-04-11T07:44:27.666Z,100176.80
2023-04-11T07:46:56.945Z,100176.73
2023-04-11T07:49:26.599Z,100171.77
2023-04-11T07:51:55.257Z,100166.48
2023-04-11T07:54:25.354Z,100164.35
2023-04-11T07:56:53.776Z,100162.36
2023-04-11T07:59:22.314Z,100157.39
2023-04-11T08:01:59.449Z,100149.00
2023-04-11T08:04:33.123Z,100145.42
2023-04-11T08:07:11.771Z,100139.13
2023-04-11T08:09:42.664Z,100133.44
2023-04-11T08:12:11.429Z,100132.08
2023-04-11T08:14:45.480Z,100131.34
2023-04-11T08:17:27.134Z,100130.98
2023-04-11T08:20:02.297Z,100126.13
2023-04-11T08:22:37.167Z,100121.89
2023-04-11T08:25:08.924Z,100123.81
2023-04-11T08:27:38.331Z,100124.05
2023-04-11T08:30:08.710Z,100118.29
2023-04-11T08:32:38.596Z,100117.81
2023-04-11T08:35:07.345Z,100114.66
2023-04-11T08:37:37.090Z,100111.21
2023-04-11T08:40:07.178Z,100108.52
2023-04-11T08:42:36.465Z,100103.50
2023-04-11T08:45:06.105Z,100100.45
2023-04-11T08:47:36.241Z,100094.79
2023-04-11T08:50:06.138Z,100092.00
2023-04-11T08:52:34.474Z,100087.02
2023-04-11T08:55:03.746Z,100081.38
2023-04-11T08:57:32.721Z,100078.35
2023-04-11T09:00:14.917Z,100073.98
2023-04-11T09:02:56.599Z,100072.68
2023-04-11T09:05:30.600Z,100069.27
2023-04-11T09:08:13.914Z,100064.63
2023-04-11T09:10:45.419Z,100063.48
2023-04-11T09:13:27.948Z,100058.96
2023-04-11T09:16:09.547Z,100059.50
2023-04-11T09:18:44.929Z,100059.25
2023-04-11T09:21:14.864Z,100055.74
2023-04-11T09:23:43.720Z,100051.34
2023-04-11T09:26:12.867Z,100047.27
2023-04-11T09:28:53.779Z,100040.80
2023-04-11T09:31:23.084Z,100034.77
2023-04-11T09:33:55.992Z,100027.77
2023-04-11T09:36:27.331Z,100020.52
2023-04-11T09:38:56.847Z,100015.87
2023-04-11T09:41:36.160Z,100016.41
2023-04-11T09:44:04.447Z,100014.52
2023-04-11T09:46:33.174Z,100007.91
2023-04-11T09:49:02.116Z,100003.55
2023-04-11T09:51:35.605Z,99998.27
2023-04-11T09:54:05.480Z,99989.23
2023-04-11T09:56:34.870Z,99984.97
2023-04-11T09:59:05.803Z,99981.54
2023-04-11T10:01:34.522Z,99978.55
2023-04-11T10:04:04.636Z,99973.02
2023-04-11T10:06:40.838Z,99968.90
2023-04-11T10:09:11.272Z,99962.91
2023-04-11T10:11:44.451Z,99957.27
2023-04-11T10:14:39.677Z,99948.66
2023-04-11T10:17:19.758Z,99939.25
2023-04-11T10:19:58.044Z,99934.90
2023-04-11T10:22:51.090Z,99928.47
2023-04-11T10:25:21.880Z,99923.09
2023-04-11T10:28:04.941Z,99919.97
2023-04-11T10:31:00.600Z,99914.02
2023-04-11T10:41:16.816Z,99907.67
2023-04-11T10:43:46.436Z,99903.61
2023-04-11T10:46:24.753Z,99897.70
2023-04-11T10:48:56.875Z,99900.32
2023-04-11T10:51:26.901Z,99896.26
2023-04-11T10:53:59.590Z,99894.17
2023-04-11T10:56:57.624Z,99894.00
2023-04-11T10:59:32.296Z,99890.23
2023-04-11T11:02:01.980Z,99887.86
2023-04-11T11:04:35.246Z,99888.05
2023-04-11T11:07:04.798Z,99888.65
2023-04-11T11:09:33.789Z,99882.39
2023-04-11T11:12:16.284Z,99873.55
2023-04-11T11:14:46.420Z,99867.88
2023-04-11T11:17:15.747Z,99863.29
2023-04-11T11:19:45.291Z,99868.71
2023-04-11T11:22:17.709Z,99866.39
2023-04-11T11:24:45.975Z,99863.66
2023-04-11T11:27:20.284Z,99858.50
2023-04-11T11:29:48.407Z,99855.25
2023-04-11T11:32:25.478Z,99855.95
2023-04-11T11:34:54.112Z,99853.52
2023-04-11T11:37:23.360Z,99850.61
2023-04-11T11:39:51.581Z,99841.77
2023-04-11T11:42:19.661Z,99839.80
2023-04-11T11:44:47.803Z,99834.09
2023-04-11T11:47:16.228Z,99827.30
2023-04-11T11:49:48.382Z,99830.46
2023-04-11T11:52:33.442Z,99829.26
2023-04-11T11:55:03.857Z,99826.34
2023-04-11T11:57:33.592Z,99821.70
2023-04-11T12:00:02.331Z,99818.52
2023-04-11T12:02:39.357Z,99816.86
2023-04-11T12:05:11.200Z,99815.14
2023-04-11T12:07:39.758Z,99814.52
2023-04-11T12:10:11.858Z,99811.74
2023-04-11T12:12:53.952Z,99808.72
2023-04-11T12:15:27.006Z,99801.85
2023-04-11T12:17:55.732Z,99795.66
2023-04-11T12:20:24.771Z,99793.86
2023-04-11T12:22:54.863Z,99785.28
2023-04-11T12:25:27.879Z,99787.38
2023-04-11T12:27:56.996Z,99784.81
2023-04-11T12:30:25.195Z,99789.95
2023-04-11T12:32:54.377Z,99789.83
2023-04-11T12:35:22.921Z,99783.22
2023-04-11T12:37:51.809Z,99774.34
2023-04-11T12:40:20.225Z,99771.14
2023-04-11T12:42:56.769Z,99766.89
2023-04-11T12:45:26.446Z,99770.50
2023-04-11T12:47:54.731Z,99766.98
2023-04-11T12:50:26.093Z,99763.98
2023-04-11T12:52:56.258Z,99763.27
2023-04-11T12:55:24.895Z,99763.08
2023-04-11T12:57:55.432Z,99766.04
2023-04-11T13:00:24.006Z,99767.80
2023-04-11T13:03:12.166Z,99767.77
2023-04-11T13:05:41.974Z,99764.99
2023-04-11T13:08:10.411Z,99759.64
2023-04-11T13:10:38.624Z,99761.06
2023-04-11T13:13:17.447Z,99760.40
2023-04-11T13:15:47.403Z,99757.35
2023-04-11T13:18:15.747Z,99760.14
2023-04-11T13:20:46.274Z,99763.57
2023-04-11T13:23:16.624Z,99765.03
2023-04-11T13:25:48.755Z,99762.14
2023-04-11T13:28:17.100Z,99760.35
2023-04-11T13:30:46.450Z,99754.89
2023-04-11T13:33:15.008Z,99749.22
2023-04-11T13:35:43.246Z,99748.28
2023-04-11T13:38:16.705Z,99749.52
2023-04-11T13:40:45.741Z,99748.35
2023-04-11T13:43:13.973Z,99747.74
2023-04-11T13:45:42.182Z,99737.15
2023-04-11T13:48:10.481Z,99737.64
2023-04-11T13:50:39.850Z,99735.09
2023-04-11T13:53:10.660Z,99731.34
2023-04-11T13:55:40.273Z,99735.41
2023-04-11T13:58:08.427Z,99736.51
2023-04-11T14:00:39.290Z,99739.77
2023-04-11T14:03:08.286Z,99738.86
2023-04-11T14:05:37.069Z,99736.79
2023-04-11T14:08:09.837Z,99734.61
2023-04-11T14:10:39.630Z,99732.95
2023-04-11T14:13:12.901Z,99731.08
2023-04-11T14:15:41.848Z,99734.29
2023-04-11T14:18:10.723Z,99732.86
2023-04-11T14:20:45.660Z,99730.76
2023-04-11T14:23:16.582Z,99733.98
2023-04-11T14:25:44.792Z,99734.98
2023-04-11T14:28:13.674Z,99735.33
2023-04-11T14:30:42.309Z,99737.34
2023-04-11T14:33:11.317Z,99733.22
2023-04-11T14:35:39.879Z,99731.38
2023-04-11T14:38:08.538Z,99729.52
2023-04-11T14:40:36.849Z,99725.64
2023-04-11T14:43:06.378Z,99724.48
2023-04-11T14:45:38.096Z,99721.77
2023-04-11T14:48:06.912Z,99720.17
2023-04-11T14:50:35.467Z,99718.45
2023-04-11T14:53:04.925Z,99720.80
2023-04-11T14:55:33.555Z,99725.30
2023-04-11T14:58:08.504Z,99726.98
2023-04-11T15:00:37.142Z,99728.60
2023-04-11T15:03:06.101Z,99733.21
2023-04-11T15:05:34.555Z,99730.73
2023-04-11T15:08:03.683Z,99722.41
2023-04-11T15:10:32.103Z,99711.83
2023-04-11T15:13:00.884Z,99707.95
2023-04-11T15:15:30.499Z,99708.27
2023-04-11T15:18:18.745Z,99704.91
2023-04-11T15:20:54.097Z,99699.64
2023-04-11T15:23:29.116Z,99696.21
2023-04-11T15:26:02.669Z,99691.29
2023-04-11T15:28:36.696Z,99688.05
2023-04-11T15:31:07.656Z,99684.96
2023-04-11T15:33:36.812Z,99684.72
2023-04-11T15:36:07.979Z,99686.74
2023-04-11T15:38:36.836Z,99687.68
2023-04-11T15:41:05.816Z,99685.19
2023-04-11T15:43:35.877Z,99687.50
2023-04-11T15:46:04.097Z,99683.75
2023-04-11T15:57:54.199Z,99676.28
2023-04-11T16:00:22.582Z,99679.86
2023-04-11T16:02:51.469Z,99675.61
2023-04-11T16:05:22.340Z,99671.16
2023-04-11T16:07:50.554Z,99670.16
2023-04-11T16:19:44.306Z,99664.38
2023-04-11T16:22:12.284Z,99664.09
2023-04-11T16:24:41.956Z,99662.30
2023-04-11T16:27:10.161Z,99660.31
2023-04-11T16:29:38.922Z,99661.07
2023-04-11T16:32:08.425Z,99659.21
2023-04-11T16:48:50.444Z,99668.44
2023-04-11T16:51:18.865Z,99672.81
2023-04-11T16:53:47.513Z,99679.14
2023-04-11T17:05:41.748Z,99700.77
2023-04-11T17:12:42.375Z,99663.64
2023-04-11T17:19:59.662Z,99666.36
2023-04-11T17:22:28.113Z,99672.14
2023-04-11T17:24:56.444Z,99670.39
2023-04-11T17:27:28.755Z,99672.35
2023-04-11T17:29:57.153Z,99676.90
2023-04-11T17:32:25.169Z,99674.11
2023-04-11T17:34:53.379Z,99664.91
2023-04-11T17:37:21.412Z,99665.39
2023-04-11T17:39:49.862Z,99673.34
2023-04-11T17:42:18.279Z,99677.80
2023-04-11T17:44:46.649Z,99677.23
2023-04-11T17:47:14.919Z,99675.14
2023-04-11T17:49:45.597Z,99680.20
2023-04-11T17:52:14.034Z,99681.91
2023-04-11T17:54:44.323Z,99683.64
2023-04-11T17:57:13.131Z,99679.73
2023-04-11T17:59:41.344Z,99688.67
2023-04-11T18:07:04.255Z,99695.16
2023-04-11T18:09:33.860Z,99691.05
2023-04-11T18:16:41.659Z,99692.65
2023-04-11T18:19:10.764Z,99692.85
2023-04-11T18:21:44.559Z,99685.65
2023-04-11T18:24:12.686Z,99680.05
2023-04-11T18:26:40.997Z,99679.87
2023-04-11T18:29:11.471Z,99681.22
2023-04-11T18:40:48.938Z,99664.64
2023-04-11T18:43:18.381Z,99659.98
2023-04-11T18:45:49.086Z,99655.32
2023-04-11T18:48:17.231Z,99652.83
2023-04-11T18:50:48.537Z,99650.45
2023-04-11T18:58:00.622Z,99637.09
2023-04-11T19:00:35.893Z,99634.52
2023-04-11T19:03:15.181Z,99628.71
2023-04-11T19:10:26.864Z,99613.05
2023-04-11T19:12:55.080Z,99610.75
2023-04-11T19:15:23.831Z,99604.39
2023-04-11T19:17:53.494Z,99600.61
2023-04-11T19:20:22.747Z,99595.40
2023-04-11T19:32:17.663Z,99569.42
2023-04-11T19:34:46.427Z,99561.92
2023-04-11T19:37:16.439Z,99555.98
2023-04-11T19:49:22.932Z,99536.67
2023-04-11T19:56:44.364Z,99534.05
2023-04-11T19:59:12.920Z,99529.70
2023-04-11T20:01:42.470Z,99530.30
2023-04-11T20:04:13.039Z,99527.98
2023-04-11T20:06:43.996Z,99527.95
2023-04-11T20:18:35.484Z,99517.81
2023-04-11T20:21:07.837Z,99515.31
2023-04-11T20:23:42.252Z,99511.70
2023-04-11T20:26:10.732Z,99508.41
2023-04-11T20:28:41.179Z,99508.67
2023-04-11T20:40:22.284Z,99496.30
2023-04-11T20:47:30.039Z,99478.64
2023-04-11T20:50:04.208Z,99474.76
2023-04-11T20:52:33.875Z,99468.85
2023-04-11T20:55:04.465Z,99465.80
2023-04-11T20:57:33.849Z,99456.56
2023-04-11T21:09:13.322Z,99441.29
2023-04-11T21:11:42.328Z,99440.05
2023-04-11T21:14:21.917Z,99439.16
2023-04-11T21:16:51.158Z,99434.78
2023-04-11T21:19:21.370Z,99435.95
2023-04-11T21:21:58.430Z,99438.79
2023-04-11T21:33:51.991Z,99429.35
2023-04-11T21:36:25.091Z,99423.23
2023-04-11T21:38:56.794Z,99418.59
2023-04-11T21:41:29.953Z,99410.02
2023-04-11T21:44:03.760Z,99409.09
2023-04-11T21:46:40.266Z,99409.23
2023-04-11T21:53:56.150Z,99406.40
2023-04-11T22:00:57.807Z,99395.17
2023-04-11T22:03:29.960Z,99387.38
2023-04-11T22:06:00.291Z,99382.91
2023-04-11T22:08:32.189Z,99378.97
2023-04-11T22:11:07.657Z,99373.80
2023-04-11T22:13:46.937Z,99371.34
2023-04-11T22:25:25.869Z,99360.89
2023-04-11T22:35:33.028Z,99344.70
2023-04-11T22:38:01.660Z,99343.08
2023-04-11T22:40:30.191Z,99337.77
2023-04-11T22:42:59.131Z,99334.86
2023-04-11T22:45:28.234Z,99332.90
2023-04-11T22:48:00.163Z,99327.47
2023-04-11T22:50:29.170Z,99326.98
2023-04-11T22:53:02.105Z,99321.11
2023-04-11T22:55:35.765Z,99321.75
2023-04-11T22:58:03.859Z,99316.84
2023-04-11T23:00:38.326Z,99320.59
2023-04-11T23:03:07.542Z,99318.13
2023-04-11T23:05:41.326Z,99312.64
2023-04-11T23:08:10.329Z,99313.66
2023-04-11T23:10:39.437Z,99311.57
2023-04-11T23:13:14.299Z,99308.52
2023-04-11T23:15:42.987Z,99305.81
2023-04-11T23:18:11.325Z,99302.87
2023-04-11T23:28:36.294Z,99291.33
2023-04-11T23:31:04.971Z,99284.92
2023-04-11T23:33:32.146Z,99279.86
2023-04-11T23:36:07.778Z,99276.84
2023-04-11T23:38:36.517Z,99277.15
2023-04-11T23:41:08.902Z,99275.19
2023-04-11T23:43:36.208Z,99269.39
2023-04-11T23:46:03.377Z,99267.33
2023-04-11T23:48:31.603Z,99260.10
2023-04-11T23:50:58.429Z,99257.12
2023-04-11T23:53:25.466Z,99250.77
2023-04-11T23:55:53.146Z,99252.02
2023-04-11T23:58:21.652Z,99248.95
